Mt Champion Express — A8QN4 — position and weather

sailwx.info

Track history (hours):
 
Tides and Currents Weather Stations Pressure Air Temp Water Temp Dewpoint Dewpoint Depression Visibility Wind Speed Wind Dir Waves Ship Positions

Mt Champion Express

Last reported at 2016-May-03 21:29 UTC. Time now 2016-May-05 18:00 UTC.
Position N 29°50' W 089°60'.

Length 192 m; draft 7 m.

Type: Tanker. MMSI: 636013968.

Date/timePositionNaut miles runAvg speedWind from/ knotsBaromVisibWave heightAir tempDewpointWater temp
2016-May-03 21:29N 29°50' W 089°60'6 6.9
2016-May-03 20:33N 29°55' W 089°57'1010.1
2016-May-03 19:33N 29°55' W 090°08'  
2016-Apr-30 17:17N 29°56' W 090°12'3 4.4
2016-Apr-30 16:33N 29°55' W 090°08'7 7.0
2016-Apr-30 15:33N 29°56' W 090°00'6 6.2
2016-Apr-30 14:32N 29°52' W 089°55'1 1.1
2016-Apr-30 13:13N 29°53' W 089°56'0 0.0
2016-Apr-30 11:28N 29°53' W 089°56'0 0.0
2016-Apr-30 10:31N 29°53' W 089°56'0 0.0
2016-Apr-30 09:22N 29°53' W 089°56'0 0.0
2016-Apr-30 08:28N 29°53' W 089°56'0 0.0
2016-Apr-30 07:28N 29°53' W 089°56'0 0.0
2016-Apr-30 06:25N 29°53' W 089°56'0 0.0
2016-Apr-30 05:31N 29°53' W 089°56'0 0.0
2016-Apr-30 04:31N 29°52' W 089°56'3 3.4
2016-Apr-30 03:33N 29°50' W 089°59'  
2016-Apr-25 02:11N 25°50' W 079°38'910.2
2016-Apr-25 01:17N 25°59' W 079°35'810.4
2016-Apr-25 00:33N 26°07' W 079°33'  
Track history (hours):
 
Tides and Currents Weather Stations Pressure Air Temp Water Temp Dewpoint Dewpoint Depression Visibility Wind Speed Wind Dir Waves Ship Positions

Mt Champion Express

Last reported at 2016-May-03 21:29 UTC. Time now 2016-May-05 18:00 UTC.
Position N 29°50' W 089°60'.

Length 192 m; draft 7 m.

Type: Tanker. MMSI: 636013968.

Date/timePositionNaut miles runAvg speedWind from/ knotsBaromVisibWave heightAir tempDewpointWater temp
2016-May-03 21:29N 29°50' W 089°60'6 6.9
2016-May-03 20:33N 29°55' W 089°57'1010.1
2016-May-03 19:33N 29°55' W 090°08'  
2016-Apr-30 17:17N 29°56' W 090°12'3 4.4
2016-Apr-30 16:33N 29°55' W 090°08'7 7.0
2016-Apr-30 15:33N 29°56' W 090°00'6 6.2
2016-Apr-30 14:32N 29°52' W 089°55'1 1.1
2016-Apr-30 13:13N 29°53' W 089°56'0 0.0
2016-Apr-30 11:28N 29°53' W 089°56'0 0.0
2016-Apr-30 10:31N 29°53' W 089°56'0 0.0
2016-Apr-30 09:22N 29°53' W 089°56'0 0.0
2016-Apr-30 08:28N 29°53' W 089°56'0 0.0
2016-Apr-30 07:28N 29°53' W 089°56'0 0.0
2016-Apr-30 06:25N 29°53' W 089°56'0 0.0
2016-Apr-30 05:31N 29°53' W 089°56'0 0.0
2016-Apr-30 04:31N 29°52' W 089°56'3 3.4
2016-Apr-30 03:33N 29°50' W 089°59'  
2016-Apr-25 02:11N 25°50' W 079°38'910.2
2016-Apr-25 01:17N 25°59' W 079°35'810.4
2016-Apr-25 00:33N 26°07' W 079°33'  

Dump ship's entire track history